• Join FlightAware (Why Join?)
  • Login
  • US Flag 
12:19PM EDT


 

Airport Tracker/Info


-or-


 

Live Flight TrackerFlight Track Log ✈ ASQ5740 ✈ 27-Apr-2013 ✈ KIAD - KBTV

Flight Track Log - Related Links

Times and Time Zones

All times are in EDT time to prevent confusion due to time zone crossing. See the ASQ5740 flight status page for this flight to view local times or setup timezone preferences in your user account.

Time Position Orientation Groundspeed Altitude Reporting Facility
EDT Latitude Longitude Course Direction KTS MPH feet Rate Location/Type
12:37PM 38.9667 -77.5333 67° East 195 224 3,000  Level Potomac TRACON
12:38PM 39.0167 -77.6000 314° West 257 296 5,600 2,820 Climbing Potomac TRACON
12:39PM 39.0167 -76.9846 90° East  Level FlightAware Approximate
12:39PM 39.0833 -77.5500 30° Northeast 273 314 8,800  Level Potomac TRACON
12:40PM 39.0372 -76.8679 72° East  Level FlightAware Approximate
12:40PM 39.1500 -77.4833 38° Northeast 308 354 10,100  Level Potomac TRACON
12:41PM 39.0501 -76.7497 72° East  Level FlightAware Approximate
12:41PM 39.1833 -77.3667 70° East 374 430 10,000  Level Potomac TRACON
12:42PM 39.0824 -76.6363 67° East  Level FlightAware Approximate
12:43PM 39.1117 -77.1486 113° Southeast 378 435 12,000  Level Washington Center
12:44PM 39.0736 -77.0219 111° Southeast 378 435 14,000 1,980 Climbing Washington Center
12:45PM 39.0836 -76.8858 85° East 368 423 16,100 1,800 Climbing Washington Center
12:46PM 39.0975 -76.7525 82° East 368 423 17,700 1,140 Climbing Washington Center
12:47PM 39.1092 -76.6108 84° East 376 433 18,500 1,140 Climbing Washington Center
12:48PM 39.1250 -76.4664 82° East 391 450 20,000 1,140 Climbing Washington Center
12:49PM 39.1406 -76.3169 82° East 411 473 20,800 840 Climbing Washington Center
12:50PM 39.1581 -76.1617 82° East 421 484 21,800 960 Climbing Washington Center
12:51PM 39.1772 -76.0119 81° East 428 493 22,800 960 Climbing Washington Center
12:52PM 39.2069 -75.8647 75° East 428 493 23,800 960 Climbing Washington Center
12:53PM 39.2883 -75.7578 45° Northeast 390 449 24,800 720 Climbing Washington Center
12:54PM 39.3719 -75.6506 45° Northeast 401 461 25,300 480 Climbing Washington Center
12:55PM 39.4531 -75.5431 46° Northeast 412 474 25,800 480 Climbing Washington Center
12:56PM 39.5406 -75.4328 44° Northeast 419 482 26,300 600 Climbing Washington Center
12:58PM 39.7092 -75.2072 46° Northeast 440 506 27,700 720 Climbing New York Center
12:59PM 39.7886 -75.0881 49° Northeast 434 499 28,500 600 Climbing New York Center
01:00PM 39.8697 -74.9739 47° Northeast 429 494 29,000 240 Climbing New York Center
01:01PM 39.9508 -74.8597 47° Northeast 424 488 29,000  Level New York Center
01:02PM 40.0453 -74.7242 48° Northeast 429 494 29,000  Level New York Center
01:03PM 40.1283 -74.6042 48° Northeast 434 499 29,000  Level New York Center
01:04PM 40.2292 -74.5172 33° Northeast 432 497 29,000  Level New York Center
01:05PM 40.3450 -74.4772 15° North 424 488 29,000  Level New York Center
01:06PM 40.4647 -74.4481 11° North 424 488 29,000  Level New York Center
01:07PM 40.6517 -74.3958 12° North 429 494 29,000  Level Boston Center
01:08PM 40.7689 -74.3667 11° North 429 494 29,000  Level Boston Center
01:09PM 40.8861 -74.3317 13° North 429 494 29,000  Level Boston Center
01:10PM 41.0033 -74.2911 15° North 429 494 29,000  Level Boston Center
01:11PM 41.1228 -74.2558 13° North 429 494 29,000  Level Boston Center
01:12PM 41.2400 -74.2178 14° North 429 494 29,000  Level Boston Center
01:13PM 41.3428 -74.1847 14° North 424 488 29,000  Level Boston Center
01:14PM 41.4581 -74.1464 14° North 424 488 29,000  Level Boston Center
01:15PM 41.5897 -74.1111 11° North 430 495 29,000 -60 Level Boston Center
01:16PM 41.7072 -74.0725 14° North 430 495 28,900  Descending Boston Center
01:17PM 41.8056 -74.0414 13° North 430 495 29,000  Climbing Boston Center
01:18PM 41.9228 -74.0056 13° North 425 489 29,000  Level Boston Center
01:19PM 42.0400 -73.9664 14° North 425 489 29,000  Level Boston Center
01:20PM 42.1550 -73.9300 13° North 420 483 29,000  Level Boston Center
01:21PM 42.2786 -73.8908 13° North 420 483 29,000  Level Boston Center
01:22PM 42.3936 -73.8542 13° North 415 478 29,000  Level Boston Center
01:23PM 42.5089 -73.8172 13° North 415 478 29,000  Level Boston Center
01:24PM 42.6072 -73.7800 16° North 407 468 29,000  Level Boston Center
01:25PM 42.7222 -73.7458 12° North 407 468 29,000  Level Boston Center
01:26PM 42.8519 -73.7033 14° North 419 482 29,000  Level Boston Center
01:27PM 42.9481 -73.6711 14° North 414 476 29,000 -120 Level Boston Center
01:28PM 43.0758 -73.6253 15° North 414 476 28,800 -1,140 Descending Boston Center
01:29PM 43.1761 -73.5903 14° North 414 476 26,800 -2,100 Descending Boston Center
01:30PM 43.2806 -73.5553 14° North 401 461 24,600 -1,440 Descending Boston Center
01:31PM 43.3872 -73.5200 14° North 393 452 24,000 -360 Descending Boston Center
01:32PM 43.4981 -73.4847 13° North 393 452 23,900 -1,620 Descending Boston Center
01:33PM 43.6047 -73.4494 13° North 399 459 20,800 -3,060 Descending Boston Center
01:34PM 43.7117 -73.3792 25° Northeast 388 447 17,800 -3,000 Descending Boston Center
01:35PM 43.7997 -73.3144 28° Northeast 364 419 14,800 -2,820 Descending Boston Center
01:36PM 43.8875 -73.2525 27° Northeast 353 406 11,700 -2,100 Descending Boston Center
01:37PM 43.9797 -73.1817 29° Northeast 326 375 10,200 -1,680 Descending Boston Center
01:38PM 44.0364 -73.1389 28° Northeast 277 319 8,400 -1,980 Descending Boston Center
01:39PM 44.0969 -73.0992 25° Northeast 242 278 6,300 -1,200 Descending Boston Center
01:40PM 44.1556 -73.0594 26° Northeast 237 273 6,000 -180 Descending Boston Center
01:41PM 44.2139 -73.0222 25° Northeast 231 266 6,000 -120 Level Boston Center
01:42PM 44.2767 -73.0056 11° North 231 266 5,800 -540 Descending Boston Center
01:43PM 44.3350 -73.0119 356° North 219 252 5,000 -840 Descending Boston Center